createdAt,value
2022-12-19T00:01:37.543Z,-2.59
2022-12-19T00:04:09.984Z,-2.59
2022-12-19T00:06:43.673Z,-2.61
2022-12-19T00:09:12.556Z,-2.61
2022-12-19T00:11:40.638Z,-2.63
2022-12-19T00:14:11.309Z,-2.65
2022-12-19T00:16:38.360Z,-2.66
2022-12-19T00:19:06.004Z,-2.66
2022-12-19T00:21:37.450Z,-2.67
2022-12-19T00:24:20.794Z,-2.69
2022-12-19T00:26:49.680Z,-2.71
2022-12-19T00:29:16.625Z,-2.70
2022-12-19T00:31:44.545Z,-2.70
2022-12-19T00:34:14.054Z,-2.72
2022-12-19T00:36:41.024Z,-2.71
2022-12-19T00:39:08.791Z,-2.71
2022-12-19T00:41:41.525Z,-2.72
2022-12-19T00:44:14.202Z,-2.71
2022-12-19T00:46:41.522Z,-2.71
2022-12-19T00:49:08.553Z,-2.72
2022-12-19T00:51:37.454Z,-2.69
2022-12-19T00:54:06.723Z,-2.69
2022-12-19T00:56:37.697Z,-2.70
2022-12-19T00:59:07.124Z,-2.68
2022-12-19T01:01:38.199Z,-2.68
2022-12-19T01:06:58.018Z,-2.65
2022-12-19T01:09:33.246Z,-2.64
2022-12-19T01:12:18.965Z,-2.62
2022-12-19T01:14:48.113Z,-2.63
2022-12-19T01:17:15.145Z,-2.61
2022-12-19T01:19:44.426Z,-2.59
2022-12-19T01:22:13.586Z,-2.58
2022-12-19T01:24:41.256Z,-2.56
2022-12-19T01:27:08.660Z,-2.54
2022-12-19T01:29:35.610Z,-2.53
2022-12-19T01:32:06.970Z,-2.51
2022-12-19T01:34:33.931Z,-2.51
2022-12-19T01:37:00.841Z,-2.49
2022-12-19T01:39:30.421Z,-2.47
2022-12-19T01:41:59.465Z,-2.45
2022-12-19T01:44:26.977Z,-2.43
2022-12-19T01:47:00.239Z,-2.42
2022-12-19T01:49:37.155Z,-2.39
2022-12-19T01:52:08.141Z,-2.37
2022-12-19T01:54:40.947Z,-2.36
2022-12-19T01:57:14.097Z,-2.34
2022-12-19T01:59:47.138Z,-2.33
2022-12-19T02:02:28.574Z,-2.30
2022-12-19T02:04:55.573Z,-2.28
2022-12-19T02:07:25.243Z,-2.25
2022-12-19T02:09:56.885Z,-2.24
2022-12-19T02:12:35.889Z,-2.18
2022-12-19T02:15:05.882Z,-2.16
2022-12-19T02:18:10.683Z,-2.16
2022-12-19T02:22:00.561Z,-2.12
2022-12-19T02:25:05.456Z,-2.12
2022-12-19T02:28:21.247Z,-2.10
2022-12-19T02:31:20.834Z,-2.07
2022-12-19T02:34:17.805Z,-2.05
2022-12-19T02:37:07.686Z,-2.03
2022-12-19T02:39:38.675Z,-2.01
2022-12-19T02:42:09.768Z,-2.01
2022-12-19T02:44:51.923Z,-1.99
2022-12-19T02:47:21.743Z,-1.97
2022-12-19T02:49:49.350Z,-1.95
2022-12-19T02:52:19.781Z,-1.92
2022-12-19T02:54:52.737Z,-1.89
2022-12-19T02:57:55.825Z,-1.87
2022-12-19T03:00:27.033Z,-1.87
2022-12-19T03:03:27.805Z,-1.83
2022-12-19T03:06:24.408Z,-1.81
2022-12-19T03:09:15.569Z,-1.78
2022-12-19T03:11:45.466Z,-1.75
2022-12-19T03:14:17.176Z,-1.74
2022-12-19T03:16:44.515Z,-1.72
2022-12-19T03:19:14.589Z,-1.70
2022-12-19T03:21:46.558Z,-1.67
2022-12-19T03:24:14.674Z,-1.65
2022-12-19T03:26:51.992Z,-1.63
2022-12-19T03:29:34.154Z,-1.61
2022-12-19T03:32:05.567Z,-1.59
2022-12-19T03:34:44.261Z,-1.56
2022-12-19T03:37:18.735Z,-1.54
2022-12-19T03:39:51.545Z,-1.51
2022-12-19T03:42:39.684Z,-1.48
2022-12-19T03:45:08.343Z,-1.45
2022-12-19T03:47:52.431Z,-1.43
2022-12-19T03:50:19.612Z,-1.41
2022-12-19T03:53:17.172Z,-1.37
2022-12-19T03:56:13.092Z,-1.32
2022-12-19T03:58:46.710Z,-1.30
2022-12-19T04:01:14.321Z,-1.27
2022-12-19T04:03:41.534Z,-1.24
2022-12-19T04:06:09.711Z,-1.22
2022-12-19T04:08:37.131Z,-1.19
2022-12-19T04:11:12.141Z,-1.18
2022-12-19T04:13:46.538Z,-1.16
2022-12-19T04:16:24.927Z,-1.13
2022-12-19T04:18:59.335Z,-1.10
2022-12-19T04:21:36.203Z,-1.10
2022-12-19T04:24:15.682Z,-1.07
2022-12-19T04:26:47.540Z,-1.06
2022-12-19T04:29:15.410Z,-1.04
2022-12-19T04:31:43.461Z,-1.02
2022-12-19T04:34:11.174Z,-1.01
2022-12-19T04:36:38.186Z,-0.98
2022-12-19T04:39:05.152Z,-0.97
2022-12-19T04:41:32.083Z,-0.94
2022-12-19T04:43:59.055Z,-0.93
2022-12-19T04:46:26.017Z,-0.91
2022-12-19T04:48:53.090Z,-0.90
2022-12-19T04:51:20.364Z,-0.91
2022-12-19T04:53:47.399Z,-0.91
2022-12-19T04:56:14.464Z,-0.92
2022-12-19T04:58:41.626Z,-0.92
2022-12-19T05:01:09.677Z,-0.92
2022-12-19T05:03:37.255Z,-0.92
2022-12-19T05:06:11.591Z,-0.93
2022-12-19T05:08:41.356Z,-0.92
2022-12-19T05:11:15.817Z,-0.89
2022-12-19T05:13:46.151Z,-0.90
2022-12-19T05:16:13.584Z,-0.91
2022-12-19T05:18:40.917Z,-0.91
2022-12-19T05:21:08.602Z,-0.91
2022-12-19T05:23:35.876Z,-0.89
2022-12-19T05:26:04.771Z,-0.89
2022-12-19T05:28:32.598Z,-0.89
2022-12-19T05:31:16.154Z,-0.90
2022-12-19T05:33:44.196Z,-0.91
2022-12-19T05:36:12.579Z,-0.89
2022-12-19T05:38:40.121Z,-0.89
2022-12-19T05:41:17.013Z,-0.89
2022-12-19T05:43:46.403Z,-0.89
2022-12-19T05:46:13.437Z,-0.88
2022-12-19T05:48:40.470Z,-0.86
2022-12-19T05:51:07.529Z,-0.87
2022-12-19T05:53:39.693Z,-0.86
2022-12-19T05:56:12.904Z,-0.85
2022-12-19T05:58:42.320Z,-0.83
2022-12-19T06:01:13.714Z,-0.82
2022-12-19T06:03:40.810Z,-0.82
2022-12-19T06:06:11.929Z,-0.79
2022-12-19T06:08:39.601Z,-0.77
2022-12-19T06:11:08.671Z,-0.74
2022-12-19T06:13:36.843Z,-0.73
2022-12-19T06:16:16.662Z,-0.71
2022-12-19T06:18:45.749Z,-0.70
2022-12-19T06:21:22.154Z,-0.69
2022-12-19T06:23:50.069Z,-0.68
2022-12-19T06:26:20.427Z,-0.65
2022-12-19T06:28:49.091Z,-0.63
2022-12-19T06:31:16.947Z,-0.60
2022-12-19T06:33:44.094Z,-0.58
2022-12-19T06:36:31.297Z,-0.55
2022-12-19T06:38:58.937Z,-0.53
2022-12-19T06:41:45.406Z,-0.49
2022-12-19T06:44:15.433Z,-0.46
2022-12-19T06:46:42.914Z,-0.45
2022-12-19T06:49:11.829Z,-0.44
2022-12-19T06:51:38.889Z,-0.43
2022-12-19T06:54:06.614Z,-0.41
2022-12-19T06:56:39.852Z,-0.38
2022-12-19T06:59:11.229Z,-0.38
2022-12-19T07:02:15.424Z,-0.34
2022-12-19T07:04:49.661Z,-0.33
2022-12-19T07:07:17.014Z,-0.32
2022-12-19T07:09:43.938Z,-0.30
2022-12-19T07:12:10.905Z,-0.28
2022-12-19T07:14:38.073Z,-0.26
2022-12-19T07:17:06.345Z,-0.23
2022-12-19T07:19:35.233Z,-0.24
2022-12-19T07:22:03.460Z,-0.22
2022-12-19T07:24:30.788Z,-0.19
2022-12-19T07:26:57.889Z,-0.17
2022-12-19T07:29:25.393Z,-0.16
2022-12-19T07:31:52.780Z,-0.14
2022-12-19T07:34:20.007Z,-0.13
2022-12-19T07:36:50.925Z,-0.12
2022-12-19T07:39:17.987Z,-0.10
2022-12-19T07:41:44.915Z,-0.08
2022-12-19T07:44:13.268Z,-0.06
2022-12-19T07:46:40.243Z,-0.02
2022-12-19T07:49:07.176Z,0.01
2022-12-19T07:51:34.099Z,0.03
2022-12-19T07:54:01.028Z,0.05
2022-12-19T07:56:28.981Z,0.09
2022-12-19T07:58:55.917Z,0.12
2022-12-19T08:01:22.913Z,0.16
2022-12-19T08:03:49.907Z,0.21
2022-12-19T08:06:17.103Z,0.24
2022-12-19T08:08:44.031Z,0.28
2022-12-19T08:11:22.201Z,0.32
2022-12-19T08:13:49.550Z,0.38
2022-12-19T08:16:16.630Z,0.39
2022-12-19T08:18:44.037Z,0.43
2022-12-19T08:21:11.710Z,0.45
2022-12-19T08:23:38.788Z,0.48
2022-12-19T08:26:15.351Z,0.49
2022-12-19T08:28:42.371Z,0.51
2022-12-19T08:31:17.395Z,0.55
2022-12-19T08:33:45.530Z,0.60
2022-12-19T08:36:15.956Z,0.63
2022-12-19T08:38:42.910Z,0.65
2022-12-19T08:41:09.888Z,0.67
2022-12-19T08:43:38.032Z,0.71
2022-12-19T08:46:06.291Z,0.75
2022-12-19T08:48:34.203Z,0.77
2022-12-19T08:51:05.432Z,0.79
2022-12-19T08:53:35.980Z,0.82
2022-12-19T08:56:16.806Z,0.86
2022-12-19T08:58:44.022Z,0.91
2022-12-19T09:01:15.185Z,0.95
2022-12-19T09:03:54.594Z,0.96
2022-12-19T09:06:29.528Z,0.99
2022-12-19T09:08:59.936Z,1.01
2022-12-19T09:11:27.834Z,1.05
2022-12-19T09:13:57.432Z,1.10
2022-12-19T09:16:27.457Z,1.17
2022-12-19T09:18:58.464Z,1.23
2022-12-19T09:21:29.113Z,1.26
2022-12-19T09:24:06.959Z,1.32
2022-12-19T09:26:35.206Z,1.35
2022-12-19T09:29:03.540Z,1.38
2022-12-19T09:31:33.784Z,1.39
2022-12-19T09:34:00.724Z,1.39
2022-12-19T09:36:27.892Z,1.40
2022-12-19T09:38:57.732Z,1.41
2022-12-19T09:41:58.479Z,1.42
2022-12-19T09:45:32.109Z,1.47
2022-12-19T09:48:01.473Z,1.49
2022-12-19T09:51:09.201Z,1.54
2022-12-19T09:54:05.172Z,1.59
2022-12-19T09:56:45.570Z,1.64
2022-12-19T09:59:41.310Z,1.70
2022-12-19T10:02:48.325Z,1.76
2022-12-19T10:06:35.424Z,1.81
2022-12-19T10:09:14.057Z,1.88
2022-12-19T10:12:45.447Z,1.90
2022-12-19T10:15:26.140Z,1.93
2022-12-19T10:18:56.863Z,1.97
2022-12-19T10:24:59.604Z,2.01
2022-12-19T10:28:05.953Z,2.03
2022-12-19T10:31:02.667Z,2.05
2022-12-19T10:33:55.103Z,2.09
2022-12-19T10:36:36.474Z,2.13
2022-12-19T10:39:29.410Z,2.18
2022-12-19T10:42:09.245Z,2.25
2022-12-19T10:44:38.619Z,2.33
2022-12-19T10:47:05.720Z,2.37
2022-12-19T10:49:32.707Z,2.41
2022-12-19T10:52:03.661Z,2.45
2022-12-19T10:54:38.406Z,2.51
2022-12-19T10:57:29.320Z,2.57
2022-12-19T11:00:06.048Z,2.63
2022-12-19T11:02:39.150Z,2.65
2022-12-19T11:05:39.121Z,2.72
2022-12-19T11:08:09.144Z,2.77
2022-12-19T11:13:18.326Z,2.81
2022-12-19T11:17:44.993Z,2.89
2022-12-19T11:23:50.214Z,2.98
2022-12-19T11:29:18.794Z,3.05
2022-12-19T11:29:39.636Z,3.18
2022-12-19T11:29:41.741Z,3.26
2022-12-19T11:29:47.131Z,3.10
2022-12-19T11:34:23.604Z,3.37
2022-12-19T11:37:55.578Z,3.40
2022-12-19T11:40:48.936Z,3.47
2022-12-19T11:43:46.970Z,3.50
2022-12-19T11:46:49.167Z,3.55
2022-12-19T11:49:48.696Z,3.61
2022-12-19T11:53:07.775Z,3.63
2022-12-19T11:56:05.238Z,3.62
2022-12-19T11:59:12.230Z,3.64
2022-12-19T12:02:00.802Z,3.65
2022-12-19T12:04:54.724Z,3.60
2022-12-19T12:07:55.470Z,3.58
2022-12-19T12:17:26.296Z,3.61
2022-12-19T12:23:05.738Z,3.60
2022-12-19T12:28:44.308Z,3.58
2022-12-19T12:31:22.342Z,3.57
2022-12-19T12:31:48.871Z,3.59
2022-12-19T12:32:00.575Z,3.63
2022-12-19T12:32:03.188Z,3.58
2022-12-19T12:35:28.861Z,3.63
2022-12-19T12:39:24.282Z,3.74
2022-12-19T12:42:43.117Z,3.80
2022-12-19T12:45:39.981Z,3.81
2022-12-19T12:48:51.723Z,3.81
2022-12-19T12:51:19.282Z,3.86
2022-12-19T12:53:48.209Z,3.88
2022-12-19T12:56:17.989Z,3.92
2022-12-19T12:58:56.632Z,3.95
2022-12-19T13:01:33.797Z,4.02
2022-12-19T13:04:12.839Z,4.05
2022-12-19T13:07:20.638Z,4.06
2022-12-19T13:10:06.262Z,4.10
2022-12-19T13:12:52.232Z,4.06
2022-12-19T13:15:28.117Z,4.10
2022-12-19T13:17:54.924Z,4.10
2022-12-19T13:20:27.730Z,4.09
2022-12-19T13:22:58.241Z,4.08
2022-12-19T13:25:49.115Z,4.07
2022-12-19T13:28:39.146Z,4.12
2022-12-19T13:31:21.413Z,4.14
2022-12-19T13:33:54.832Z,4.12
2022-12-19T13:39:54.167Z,4.11
2022-12-19T13:40:33.085Z,4.12
2022-12-19T13:43:35.403Z,4.12
2022-12-19T13:46:23.742Z,4.07
2022-12-19T13:48:55.188Z,4.07
2022-12-19T13:51:22.376Z,4.10
2022-12-19T13:53:59.316Z,4.12
2022-12-19T13:56:30.631Z,4.14
2022-12-19T13:59:02.079Z,4.14
2022-12-19T14:01:35.724Z,4.16
2022-12-19T14:04:11.531Z,4.20
2022-12-19T14:06:46.205Z,4.17
2022-12-19T14:11:28.801Z,4.13
2022-12-19T14:13:47.150Z,4.16
2022-12-19T14:15:52.111Z,4.15
2022-12-19T14:18:44.565Z,4.12
2022-12-19T14:22:11.705Z,4.15
2022-12-19T14:24:22.634Z,4.17
2022-12-19T14:28:19.382Z,4.19
2022-12-19T14:30:27.711Z,4.21
2022-12-19T14:33:40.835Z,4.19
2022-12-19T14:36:05.799Z,4.19
2022-12-19T14:39:25.838Z,4.18
2022-12-19T14:41:48.464Z,4.14
2022-12-19T14:52:52.389Z,4.13
2022-12-19T14:53:51.677Z,4.11
2022-12-19T14:54:10.514Z,4.14
2022-12-19T14:54:38.019Z,4.17
2022-12-19T14:56:40.699Z,4.19
2022-12-19T14:59:06.088Z,4.22
2022-12-19T15:01:34.898Z,4.24
2022-12-19T15:04:48.981Z,4.25
2022-12-19T15:07:09.741Z,4.25
2022-12-19T15:11:04.819Z,4.27
2022-12-19T15:14:56.144Z,4.28
2022-12-19T15:16:26.792Z,4.31
2022-12-19T15:18:58.448Z,4.32
2022-12-19T15:21:26.607Z,4.32
2022-12-19T15:23:53.699Z,4.33
2022-12-19T15:26:36.355Z,4.30
2022-12-19T15:29:13.988Z,4.31
2022-12-19T15:31:44.978Z,4.31
2022-12-19T15:34:36.339Z,4.30
2022-12-19T15:37:05.226Z,4.30
2022-12-19T15:39:32.326Z,4.30
2022-12-19T15:42:01.297Z,4.31
2022-12-19T15:44:39.474Z,4.30
2022-12-19T15:47:18.006Z,4.30
2022-12-19T15:49:45.565Z,4.32
2022-12-19T15:52:17.821Z,4.32
2022-12-19T15:54:48.521Z,4.32
2022-12-19T15:57:44.782Z,4.32
2022-12-19T16:00:25.644Z,4.32
2022-12-19T16:05:42.116Z,4.31
2022-12-19T16:08:14.610Z,4.31
2022-12-19T16:10:43.353Z,4.33
2022-12-19T16:13:20.653Z,4.34
2022-12-19T16:15:48.058Z,4.35
2022-12-19T16:18:16.011Z,4.35
2022-12-19T16:20:43.495Z,4.36
2022-12-19T16:23:11.707Z,4.37
2022-12-19T16:25:46.278Z,4.39
2022-12-19T16:28:34.707Z,4.38
2022-12-19T16:31:15.529Z,4.41
2022-12-19T16:33:42.625Z,4.42
2022-12-19T16:36:09.748Z,4.44
2022-12-19T16:38:36.816Z,4.45
2022-12-19T16:41:03.843Z,4.47
2022-12-19T16:43:38.426Z,4.46
2022-12-19T16:46:07.480Z,4.48
2022-12-19T16:48:35.825Z,4.47
2022-12-19T16:51:03.284Z,4.45
2022-12-19T16:53:31.037Z,4.47
2022-12-19T16:55:59.567Z,4.48
2022-12-19T16:58:28.582Z,4.48
2022-12-19T17:00:56.589Z,4.50
2022-12-19T17:03:32.280Z,4.49
2022-12-19T17:05:59.564Z,4.51
2022-12-19T17:08:26.594Z,4.52
2022-12-19T17:10:54.605Z,4.53
2022-12-19T17:13:23.514Z,4.54
2022-12-19T17:15:56.261Z,4.58
2022-12-19T17:18:31.522Z,4.56
2022-12-19T17:20:58.533Z,4.59
2022-12-19T17:23:26.715Z,4.60
2022-12-19T17:25:54.931Z,4.61
2022-12-19T17:28:22.298Z,4.59
2022-12-19T17:30:53.393Z,4.61
2022-12-19T17:33:23.703Z,4.56
2022-12-19T17:35:50.655Z,4.55
2022-12-19T17:38:18.127Z,4.52
2022-12-19T17:40:45.580Z,4.51
2022-12-19T17:43:13.313Z,4.49
2022-12-19T17:45:41.125Z,4.50
2022-12-19T17:48:27.882Z,4.48
2022-12-19T17:50:56.093Z,4.48
2022-12-19T17:53:23.860Z,4.45
2022-12-19T17:55:51.397Z,4.36
2022-12-19T17:58:18.738Z,4.31
2022-12-19T18:00:47.359Z,4.25
2022-12-19T18:03:25.609Z,4.16
2022-12-19T18:05:55.270Z,4.16
2022-12-19T18:08:32.066Z,4.15
2022-12-19T18:11:02.699Z,4.12
2022-12-19T18:13:31.258Z,4.15
2022-12-19T18:16:01.317Z,4.17
2022-12-19T18:18:35.275Z,4.23
2022-12-19T18:21:04.256Z,4.28
2022-12-19T18:23:31.553Z,4.35
2022-12-19T18:26:01.763Z,4.37
2022-12-19T18:28:30.005Z,4.40
2022-12-19T18:31:25.342Z,4.45
2022-12-19T18:33:54.664Z,4.48
2022-12-19T18:36:28.617Z,4.52
2022-12-19T18:38:57.284Z,4.57
2022-12-19T18:41:24.427Z,4.60
2022-12-19T18:43:51.376Z,4.63
2022-12-19T18:46:28.175Z,4.68
2022-12-19T18:48:55.561Z,4.74
2022-12-19T18:51:23.089Z,4.77
2022-12-19T18:53:50.992Z,4.78
2022-12-19T18:56:18.162Z,4.79
2022-12-19T18:58:45.071Z,4.79
2022-12-19T19:01:17.777Z,4.80
2022-12-19T19:03:56.715Z,4.81
2022-12-19T19:06:28.086Z,4.82
2022-12-19T19:08:58.668Z,4.83
2022-12-19T19:11:49.611Z,4.80
2022-12-19T19:14:16.574Z,4.81
2022-12-19T19:16:43.714Z,4.79
2022-12-19T19:19:14.550Z,4.80
2022-12-19T19:21:42.600Z,4.79
2022-12-19T19:24:18.530Z,4.82
2022-12-19T19:26:45.572Z,4.83
2022-12-19T19:29:18.655Z,4.84
2022-12-19T19:31:49.938Z,4.89
2022-12-19T19:34:23.857Z,4.90
2022-12-19T19:36:54.607Z,4.94
2022-12-19T19:39:22.754Z,4.96
2022-12-19T19:41:49.780Z,4.94
2022-12-19T19:44:16.746Z,4.94
2022-12-19T19:46:43.741Z,4.89
2022-12-19T19:49:10.799Z,4.88
2022-12-19T19:51:37.730Z,4.85
2022-12-19T19:54:05.089Z,4.82
2022-12-19T19:56:32.318Z,4.78
2022-12-19T19:59:00.580Z,4.75
2022-12-19T20:01:27.850Z,4.72
2022-12-19T20:03:55.006Z,4.69
2022-12-19T20:06:22.156Z,4.69
2022-12-19T20:08:49.332Z,4.73
2022-12-19T20:11:16.724Z,4.74
2022-12-19T20:13:43.722Z,4.74
2022-12-19T20:16:18.111Z,4.76
2022-12-19T20:18:51.313Z,4.81
2022-12-19T20:21:20.073Z,4.88
2022-12-19T20:23:47.445Z,4.94
2022-12-19T20:26:16.309Z,4.99
2022-12-19T20:28:49.006Z,5.04
2022-12-19T20:31:20.989Z,5.11
2022-12-19T20:33:48.586Z,5.15
2022-12-19T20:36:16.975Z,5.18
2022-12-19T20:38:44.271Z,5.19
2022-12-19T20:41:11.363Z,5.18
2022-12-19T20:43:38.917Z,5.13
2022-12-19T20:46:10.507Z,5.08
2022-12-19T20:48:37.901Z,5.03
2022-12-19T20:51:06.515Z,5.04
2022-12-19T20:53:35.706Z,5.06
2022-12-19T20:56:05.190Z,5.02
2022-12-19T20:58:35.156Z,4.99
2022-12-19T21:01:10.781Z,4.95
2022-12-19T21:03:39.329Z,4.93
2022-12-19T21:06:08.296Z,4.92
2022-12-19T21:08:35.779Z,4.76
2022-12-19T21:11:05.371Z,4.74
2022-12-19T21:13:33.061Z,4.74
2022-12-19T21:16:03.241Z,4.71
2022-12-19T21:18:30.597Z,4.68
2022-12-19T21:20:59.865Z,4.68
2022-12-19T21:23:27.634Z,4.68
2022-12-19T21:26:00.471Z,4.65
2022-12-19T21:28:27.812Z,4.67
2022-12-19T21:31:10.832Z,4.68
2022-12-19T21:33:37.915Z,4.63
2022-12-19T21:36:11.008Z,4.63
2022-12-19T21:38:38.559Z,4.64
2022-12-19T21:41:07.711Z,4.60
2022-12-19T21:43:35.494Z,4.61
2022-12-19T21:46:14.227Z,4.63
2022-12-19T21:48:52.898Z,4.64
2022-12-19T21:51:23.651Z,4.68
2022-12-19T21:54:02.923Z,4.72
2022-12-19T21:56:39.968Z,4.75
2022-12-19T21:59:13.526Z,4.80
2022-12-19T22:01:42.144Z,4.83
2022-12-19T22:04:22.456Z,4.87
2022-12-19T22:06:51.131Z,4.88
2022-12-19T22:09:23.426Z,4.90
2022-12-19T22:11:50.592Z,4.93
2022-12-19T22:14:18.178Z,4.95
2022-12-19T22:16:45.468Z,4.95
2022-12-19T22:19:16.253Z,4.96
2022-12-19T22:21:44.032Z,4.94
2022-12-19T22:24:14.021Z,4.93
2022-12-19T22:26:41.348Z,4.99
2022-12-19T22:29:11.233Z,5.05
2022-12-19T22:31:39.442Z,5.08
2022-12-19T22:34:13.803Z,5.12
2022-12-19T22:36:42.700Z,5.16
2022-12-19T22:39:14.051Z,5.14
2022-12-19T22:41:42.011Z,5.11
2022-12-19T22:44:21.231Z,5.13
2022-12-19T22:46:49.006Z,5.14
2022-12-19T22:49:16.234Z,5.12
2022-12-19T22:51:43.529Z,5.15
2022-12-19T22:54:12.026Z,5.19
2022-12-19T22:56:40.145Z,5.20
2022-12-19T22:59:10.043Z,5.22
2022-12-19T23:01:41.988Z,5.24
2022-12-19T23:04:13.632Z,5.25
2022-12-19T23:06:40.940Z,5.29
2022-12-19T23:09:11.035Z,5.29
2022-12-19T23:11:41.319Z,5.29
2022-12-19T23:14:13.482Z,5.28
2022-12-19T23:16:42.150Z,5.25
2022-12-19T23:19:10.522Z,5.25
2022-12-19T23:21:37.856Z,5.27
2022-12-19T23:24:05.373Z,5.28
2022-12-19T23:26:36.401Z,5.29
2022-12-19T23:29:08.872Z,5.28
2022-12-19T23:31:39.403Z,5.30
2022-12-19T23:34:06.497Z,5.33
2022-12-19T23:39:20.448Z,5.36
2022-12-19T23:41:47.389Z,5.38
2022-12-19T23:44:15.247Z,5.40
2022-12-19T23:46:42.276Z,5.38
2022-12-19T23:49:09.320Z,5.40
2022-12-19T23:51:36.283Z,5.42
2022-12-19T23:54:03.414Z,5.45
2022-12-19T23:56:32.165Z,5.46
2022-12-19T23:58:59.847Z,5.47
